createdAt,value
2023-05-10T00:02:17.702Z,2.10
2023-05-10T00:04:48.631Z,1.93
2023-05-10T00:07:19.935Z,2.10
2023-05-10T00:09:50.849Z,2.50
2023-05-10T00:12:22.225Z,2.50
2023-05-10T00:14:55.853Z,3.23
2023-05-10T00:17:26.983Z,3.50
2023-05-10T00:19:58.628Z,3.10
2023-05-10T00:22:29.574Z,3.63
2023-05-10T00:25:00.477Z,3.40
2023-05-10T00:27:31.371Z,3.70
2023-05-10T00:30:04.923Z,3.83
2023-05-10T00:32:35.892Z,3.97
2023-05-10T00:35:07.448Z,4.27
2023-05-10T00:37:38.461Z,3.90
2023-05-10T00:40:11.181Z,4.47
2023-05-10T00:42:42.126Z,5.10
2023-05-10T00:45:15.773Z,5.83
2023-05-10T00:47:46.740Z,5.53
2023-05-10T00:50:19.312Z,5.77
2023-05-10T00:52:50.385Z,5.77
2023-05-10T00:55:22.658Z,6.33
2023-05-10T00:57:53.626Z,5.80
2023-05-10T01:00:27.226Z,5.73
2023-05-10T01:02:58.340Z,6.20
2023-05-10T01:05:29.415Z,5.87
2023-05-10T01:08:00.691Z,7.20
2023-05-10T01:10:31.590Z,6.10
2023-05-10T01:13:04.289Z,8.10
2023-05-10T01:15:38.533Z,7.33
2023-05-10T01:18:09.821Z,7.10
2023-05-10T01:20:47.133Z,7.17
2023-05-10T01:23:42.852Z,8.20
2023-05-10T01:26:50.989Z,7.20
2023-05-10T01:30:05.919Z,7.77
2023-05-10T01:32:54.197Z,8.80
2023-05-10T01:35:30.844Z,8.70
2023-05-10T01:38:16.273Z,8.90
2023-05-10T01:40:56.097Z,10.10
2023-05-10T01:43:32.462Z,9.77
2023-05-10T01:46:11.577Z,9.17
2023-05-10T01:48:51.951Z,9.80
2023-05-10T01:51:27.788Z,9.00
2023-05-10T01:54:05.367Z,8.70
2023-05-10T01:56:38.881Z,8.33
2023-05-10T01:59:15.263Z,7.97
2023-05-10T02:01:48.166Z,6.00
2023-05-10T02:04:23.114Z,5.27
2023-05-10T02:06:55.379Z,5.37
2023-05-10T02:09:27.913Z,4.80
2023-05-10T02:12:00.998Z,5.53
2023-05-10T02:14:32.813Z,4.57
2023-05-10T02:17:05.245Z,4.97
2023-05-10T02:19:42.613Z,4.70
2023-05-10T02:22:14.265Z,4.50
2023-05-10T02:24:45.978Z,4.80
2023-05-10T02:27:19.416Z,3.70
2023-05-10T02:29:51.697Z,3.53
2023-05-10T02:32:23.274Z,3.37
2023-05-10T02:34:57.294Z,2.70
2023-05-10T02:37:29.070Z,2.43
2023-05-10T02:40:04.368Z,2.73
2023-05-10T02:42:38.916Z,2.37
2023-05-10T02:45:15.896Z,2.63
2023-05-10T02:47:47.262Z,2.47
2023-05-10T02:50:20.956Z,2.07
2023-05-10T02:52:55.569Z,2.40
2023-05-10T02:55:33.391Z,2.50
2023-05-10T02:58:05.320Z,2.20
2023-05-10T03:00:36.677Z,2.67
2023-05-10T03:03:07.957Z,3.17
2023-05-10T03:05:41.683Z,3.03
2023-05-10T03:08:13.102Z,2.80
2023-05-10T03:10:54.523Z,2.70
2023-05-10T03:13:36.465Z,2.50
2023-05-10T03:16:12.876Z,2.87
2023-05-10T03:18:48.055Z,2.80
2023-05-10T03:21:24.649Z,2.90
2023-05-10T03:24:02.572Z,3.27
2023-05-10T03:26:34.230Z,3.67
2023-05-10T03:29:06.077Z,4.50
2023-05-10T03:31:37.345Z,5.03
2023-05-10T03:34:08.483Z,5.70
2023-05-10T03:36:41.948Z,5.93
2023-05-10T03:39:12.810Z,6.87
2023-05-10T03:41:43.798Z,8.03
2023-05-10T03:44:14.680Z,9.57
2023-05-10T03:46:45.910Z,10.00
2023-05-10T03:49:16.923Z,11.30
2023-05-10T03:51:50.666Z,11.67
2023-05-10T03:54:21.718Z,11.10
2023-05-10T03:56:52.889Z,11.60
2023-05-10T03:59:23.885Z,12.70
2023-05-10T04:01:54.870Z,12.67
2023-05-10T04:04:26.052Z,12.90
2023-05-10T04:06:59.553Z,13.50
2023-05-10T04:09:30.500Z,13.17
2023-05-10T04:12:03.499Z,13.03
2023-05-10T04:14:34.596Z,12.10
2023-05-10T04:17:05.614Z,12.70
2023-05-10T04:19:37.271Z,13.07
2023-05-10T04:22:10.773Z,12.30
2023-05-10T04:24:41.697Z,11.37
2023-05-10T04:27:12.644Z,12.30
2023-05-10T04:29:43.941Z,12.07
2023-05-10T04:32:14.998Z,10.93
2023-05-10T04:34:45.887Z,10.73
2023-05-10T04:37:20.023Z,10.60
2023-05-10T04:39:51.399Z,11.13
2023-05-10T04:42:22.304Z,10.87
2023-05-10T04:44:53.230Z,13.30
2023-05-10T04:47:24.584Z,13.00
2023-05-10T04:49:55.601Z,13.33
2023-05-10T04:52:29.130Z,15.80
2023-05-10T04:55:00.225Z,16.47
2023-05-10T04:57:31.229Z,16.87
2023-05-10T05:00:03.527Z,17.93
2023-05-10T05:02:34.585Z,19.73
2023-05-10T05:05:05.696Z,19.87
2023-05-10T05:07:39.475Z,19.00
2023-05-10T05:10:12.209Z,20.60
2023-05-10T05:12:43.325Z,19.57
2023-05-10T05:15:16.342Z,20.20
2023-05-10T05:17:47.374Z,21.00
2023-05-10T05:20:20.155Z,21.53
2023-05-10T05:22:53.659Z,20.40
2023-05-10T05:25:24.850Z,22.30
2023-05-10T05:27:55.791Z,22.13
2023-05-10T05:30:26.751Z,22.00
2023-05-10T05:32:57.827Z,21.10
2023-05-10T05:35:29.086Z,21.60
2023-05-10T05:38:02.849Z,22.97
2023-05-10T05:40:33.755Z,22.40
2023-05-10T05:43:04.645Z,22.10
2023-05-10T05:45:35.541Z,22.10
2023-05-10T05:48:07.524Z,22.37
2023-05-10T05:50:38.542Z,22.80
2023-05-10T05:53:12.969Z,24.10
2023-05-10T05:55:43.903Z,22.97
2023-05-10T05:58:14.863Z,22.97
2023-05-10T06:00:46.111Z,24.90
2023-05-10T06:03:17.066Z,24.23
2023-05-10T06:05:48.147Z,24.13
2023-05-10T06:08:21.609Z,23.47
2023-05-10T06:10:54.506Z,24.73
2023-05-10T06:13:25.576Z,25.90
2023-05-10T06:15:56.502Z,26.27
2023-05-10T06:18:27.683Z,26.47
2023-05-10T06:20:58.558Z,25.50
2023-05-10T06:23:32.021Z,25.53
2023-05-10T06:26:02.870Z,25.67
2023-05-10T06:28:34.831Z,27.27
2023-05-10T06:31:05.748Z,25.90
2023-05-10T06:33:36.794Z,25.97
2023-05-10T06:36:08.060Z,26.90
2023-05-10T06:38:41.859Z,25.40
2023-05-10T06:41:12.722Z,27.20
2023-05-10T06:43:44.487Z,26.83
2023-05-10T06:46:15.855Z,24.87
2023-05-10T06:48:47.071Z,26.47
2023-05-10T06:51:18.752Z,26.27
2023-05-10T06:53:54.221Z,26.40
2023-05-10T06:56:25.179Z,26.03
2023-05-10T06:58:59.062Z,26.07
2023-05-10T07:01:31.917Z,25.87
2023-05-10T07:04:07.845Z,25.10
2023-05-10T07:06:48.240Z,24.80
2023-05-10T07:09:26.292Z,25.27
2023-05-10T07:12:02.080Z,24.30
2023-05-10T07:14:39.713Z,22.73
2023-05-10T07:17:16.020Z,23.10
2023-05-10T07:19:55.593Z,23.40
2023-05-10T07:22:26.474Z,21.77
2023-05-10T07:25:10.418Z,21.33
2023-05-10T07:27:53.594Z,23.10
2023-05-10T07:30:27.299Z,23.80
2023-05-10T07:40:35.518Z,22.30
2023-05-10T07:43:07.723Z,21.80
2023-05-10T07:45:44.927Z,21.30
2023-05-10T07:48:52.878Z,21.10
2023-05-10T07:58:28.217Z,21.97
2023-05-10T08:00:59.335Z,20.43
2023-05-10T08:03:33.040Z,21.20
2023-05-10T08:06:07.355Z,20.77
2023-05-10T08:08:40.979Z,21.10
2023-05-10T08:11:18.633Z,21.50
2023-05-10T08:13:58.568Z,21.40
2023-05-10T08:16:30.101Z,21.70
2023-05-10T08:19:57.491Z,22.00
2023-05-10T08:22:51.934Z,23.90
2023-05-10T08:25:41.739Z,23.13
2023-05-10T08:28:12.874Z,23.43
2023-05-10T08:30:46.656Z,23.37
2023-05-10T08:33:18.084Z,23.60
2023-05-10T08:36:03.235Z,23.03
2023-05-10T08:38:37.081Z,22.90
2023-05-10T08:42:13.522Z,22.67
2023-05-10T08:45:53.364Z,24.30
2023-05-10T08:48:31.166Z,26.07
2023-05-10T08:51:04.372Z,22.03
2023-05-10T08:53:37.103Z,22.27
2023-05-10T08:56:09.016Z,20.70
2023-05-10T08:58:40.555Z,19.90
2023-05-10T09:01:12.544Z,21.17
2023-05-10T09:03:47.038Z,19.40
2023-05-10T09:06:18.120Z,19.30
2023-05-10T09:08:49.599Z,21.30
2023-05-10T09:11:21.296Z,21.33
2023-05-10T09:13:54.504Z,22.87
2023-05-10T09:16:28.727Z,21.17
2023-05-10T09:19:02.446Z,21.67
2023-05-10T09:21:34.363Z,20.97
2023-05-10T09:24:08.443Z,20.27
2023-05-10T09:26:49.359Z,20.00
2023-05-10T09:29:20.411Z,18.13
2023-05-10T09:31:55.966Z,19.83
2023-05-10T09:34:37.687Z,17.57
2023-05-10T09:37:10.627Z,15.70
2023-05-10T09:39:42.487Z,16.03
2023-05-10T09:42:14.308Z,15.57
2023-05-10T09:44:49.041Z,14.83
2023-05-10T09:47:21.718Z,14.20
2023-05-10T09:50:03.940Z,14.60
2023-05-10T09:52:34.810Z,12.80
2023-05-10T09:55:06.279Z,12.00
2023-05-10T09:57:37.254Z,11.43
2023-05-10T10:00:11.989Z,11.60
2023-05-10T10:02:44.972Z,9.83
2023-05-10T10:05:19.068Z,10.87
2023-05-10T10:07:53.940Z,10.43
2023-05-10T10:10:25.325Z,9.67
2023-05-10T10:12:59.759Z,8.93
2023-05-10T10:15:30.675Z,8.97
2023-05-10T10:18:01.664Z,10.00
2023-05-10T10:20:35.640Z,9.27
2023-05-10T10:23:06.466Z,9.37
2023-05-10T10:25:37.541Z,8.50
2023-05-10T10:28:18.271Z,9.00
2023-05-10T10:30:54.030Z,8.80
2023-05-10T10:33:48.440Z,9.23
2023-05-10T10:36:24.513Z,10.40
2023-05-10T10:39:05.249Z,9.50
2023-05-10T10:41:37.741Z,9.73
2023-05-10T10:44:30.626Z,10.73
2023-05-10T10:47:12.923Z,9.70
2023-05-10T10:49:52.755Z,10.20
2023-05-10T10:52:34.146Z,11.10
2023-05-10T10:55:10.322Z,12.03
2023-05-10T10:57:49.541Z,13.30
2023-05-10T11:00:29.014Z,13.60
2023-05-10T11:03:04.041Z,14.90
2023-05-10T11:05:45.062Z,15.90
2023-05-10T11:08:20.991Z,16.00
2023-05-10T11:10:57.418Z,14.63
2023-05-10T11:13:34.410Z,13.60
2023-05-10T11:16:18.273Z,12.57
2023-05-10T11:19:03.732Z,11.20
2023-05-10T11:21:35.749Z,11.30
2023-05-10T11:24:17.770Z,10.60
2023-05-10T11:26:49.147Z,10.90
2023-05-10T11:29:20.322Z,11.80
2023-05-10T11:31:52.293Z,12.50
2023-05-10T11:34:31.389Z,13.80
2023-05-10T11:37:03.620Z,16.57
2023-05-10T11:39:37.257Z,15.73
2023-05-10T11:42:13.304Z,15.70
2023-05-10T11:44:46.824Z,15.17
2023-05-10T11:47:17.690Z,16.30
2023-05-10T11:49:48.728Z,15.33
2023-05-10T11:52:19.545Z,15.80
2023-05-10T11:54:57.451Z,13.10
2023-05-10T11:57:32.344Z,13.10
2023-05-10T12:00:04.902Z,13.13
2023-05-10T12:02:36.224Z,12.50
2023-05-10T12:05:08.956Z,12.57
2023-05-10T12:07:40.005Z,12.20
2023-05-10T12:10:16.118Z,13.23
2023-05-10T12:12:49.244Z,11.97
2023-05-10T12:15:23.108Z,12.10
2023-05-10T12:17:54.826Z,12.90
2023-05-10T12:20:27.848Z,11.27
2023-05-10T12:23:03.072Z,10.80
2023-05-10T12:25:38.008Z,11.60
2023-05-10T12:28:10.929Z,10.33
2023-05-10T12:30:42.417Z,10.03
2023-05-10T12:33:16.141Z,9.80
2023-05-10T12:35:52.337Z,8.70
2023-05-10T12:38:35.968Z,10.30
2023-05-10T12:41:11.368Z,10.40
2023-05-10T12:43:43.158Z,9.83
2023-05-10T12:46:18.666Z,9.97
2023-05-10T12:49:07.596Z,9.53
2023-05-10T12:51:39.671Z,8.80
2023-05-10T12:54:10.925Z,10.47
2023-05-10T12:56:44.592Z,8.80
2023-05-10T12:59:15.476Z,9.90
2023-05-10T13:01:46.443Z,9.70
2023-05-10T13:04:17.338Z,10.90
2023-05-10T13:06:48.448Z,9.97
2023-05-10T13:09:20.065Z,10.63
2023-05-10T13:11:54.589Z,10.70
2023-05-10T13:14:25.700Z,11.40
2023-05-10T13:16:59.910Z,11.17
2023-05-10T13:19:30.959Z,10.33
2023-05-10T13:22:01.787Z,10.63
2023-05-10T13:24:34.368Z,10.17
2023-05-10T13:27:07.797Z,10.20
2023-05-10T13:29:38.653Z,10.93
2023-05-10T13:32:09.913Z,10.50
2023-05-10T13:34:41.105Z,11.17
2023-05-10T13:37:11.950Z,10.43
2023-05-10T13:39:42.898Z,11.13
2023-05-10T13:42:36.241Z,10.40
2023-05-10T13:45:08.304Z,9.70
2023-05-10T13:47:39.222Z,9.50
2023-05-10T13:50:11.242Z,9.20
2023-05-10T13:52:44.792Z,10.07
2023-05-10T13:55:16.676Z,11.33
2023-05-10T13:57:50.370Z,10.70
2023-05-10T14:00:22.132Z,10.57
2023-05-10T14:02:53.293Z,9.10
2023-05-10T14:05:26.306Z,6.60
2023-05-10T14:07:58.376Z,7.00
2023-05-10T14:10:30.076Z,7.40
2023-05-10T14:13:04.809Z,6.07
2023-05-10T14:15:35.724Z,5.30
2023-05-10T14:18:06.890Z,4.87
2023-05-10T14:20:37.871Z,4.23
2023-05-10T14:23:10.465Z,4.77
2023-05-10T14:25:43.840Z,5.37
2023-05-10T14:28:19.537Z,5.43
2023-05-10T14:30:50.687Z,5.63
2023-05-10T14:33:21.949Z,4.80
2023-05-10T14:35:53.350Z,5.97
2023-05-10T14:38:24.518Z,5.33
2023-05-10T14:40:55.830Z,4.20
2023-05-10T14:43:29.269Z,5.57
2023-05-10T14:46:00.113Z,4.63
2023-05-10T14:48:31.104Z,4.80
2023-05-10T14:51:01.972Z,4.60
2023-05-10T14:53:33.678Z,3.80
2023-05-10T14:56:05.028Z,3.40
2023-05-10T14:58:38.638Z,3.67
2023-05-10T15:01:09.704Z,3.50
2023-05-10T15:03:41.044Z,4.00
2023-05-10T15:06:12.702Z,3.50
2023-05-10T15:08:43.473Z,3.47
2023-05-10T15:11:15.303Z,3.83
2023-05-10T15:13:48.672Z,3.87
2023-05-10T15:16:19.520Z,3.40
2023-05-10T15:18:50.439Z,3.70
2023-05-10T15:21:21.396Z,3.83
2023-05-10T15:23:52.209Z,3.87
2023-05-10T15:26:23.236Z,3.97
2023-05-10T15:28:56.724Z,4.20
2023-05-10T15:31:30.726Z,5.00
2023-05-10T15:34:02.555Z,3.97
2023-05-10T15:36:35.278Z,3.93
2023-05-10T15:39:06.862Z,4.00
2023-05-10T15:41:38.060Z,4.10
2023-05-10T15:44:12.080Z,5.07
2023-05-10T15:46:43.220Z,4.20
2023-05-10T15:49:14.287Z,4.27
2023-05-10T15:51:45.113Z,4.63
2023-05-10T15:54:18.744Z,4.60
2023-05-10T15:56:49.745Z,4.77
2023-05-10T15:59:23.388Z,4.60
2023-05-10T16:01:54.850Z,4.53
2023-05-10T16:04:26.494Z,4.87
2023-05-10T16:06:57.333Z,4.53
2023-05-10T16:09:28.323Z,5.30
2023-05-10T16:11:59.687Z,5.37
2023-05-10T16:14:33.123Z,4.80
2023-05-10T16:17:04.938Z,5.63
2023-05-10T16:19:35.990Z,6.03
2023-05-10T16:22:06.861Z,5.30
2023-05-10T16:24:37.728Z,4.97
2023-05-10T16:27:08.567Z,5.73
2023-05-10T16:29:42.230Z,6.47
2023-05-10T16:32:13.109Z,6.70
2023-05-10T16:34:44.110Z,6.37
2023-05-10T16:37:14.983Z,6.80
2023-05-10T16:39:45.805Z,6.77
2023-05-10T16:42:18.164Z,6.03
2023-05-10T16:44:51.617Z,6.97
2023-05-10T16:47:23.414Z,6.40
2023-05-10T16:49:54.329Z,6.40
2023-05-10T16:52:25.165Z,6.70
2023-05-10T16:54:57.460Z,7.77
2023-05-10T16:57:28.513Z,8.57
2023-05-10T17:00:02.002Z,8.30
2023-05-10T17:02:32.956Z,8.50
2023-05-10T17:05:03.956Z,8.90
2023-05-10T17:07:34.849Z,9.03
2023-05-10T17:10:05.689Z,9.20
2023-05-10T17:12:36.570Z,8.80
2023-05-10T17:15:12.650Z,8.77
2023-05-10T17:17:43.598Z,9.40
2023-05-10T17:20:15.035Z,9.83
2023-05-10T17:22:46.153Z,10.33
2023-05-10T17:25:17.359Z,10.80
2023-05-10T17:27:48.414Z,10.90
2023-05-10T17:30:27.598Z,10.87
2023-05-10T17:32:58.577Z,10.77
2023-05-10T17:35:33.306Z,12.17
2023-05-10T17:38:04.364Z,10.90
2023-05-10T17:40:35.451Z,11.17
2023-05-10T17:43:06.294Z,12.73
2023-05-10T17:45:39.784Z,12.23
2023-05-10T17:48:11.581Z,15.30
2023-05-10T17:50:46.272Z,16.27
2023-05-10T17:53:17.218Z,17.33
2023-05-10T17:55:48.132Z,17.17
2023-05-10T17:58:18.983Z,16.70
2023-05-10T18:00:52.804Z,15.90
2023-05-10T18:03:23.949Z,16.63
2023-05-10T18:05:55.462Z,15.30
2023-05-10T18:08:28.872Z,15.17
2023-05-10T18:10:59.784Z,15.90
2023-05-10T18:13:30.670Z,15.63
2023-05-10T18:16:05.821Z,15.87
2023-05-10T18:18:36.950Z,16.10
2023-05-10T18:21:08.291Z,15.40
2023-05-10T18:23:39.250Z,16.20
2023-05-10T18:26:11.066Z,16.23
2023-05-10T18:28:43.863Z,16.97
2023-05-10T18:31:17.491Z,14.93
2023-05-10T18:33:48.557Z,17.10
2023-05-10T18:36:19.625Z,18.13
2023-05-10T18:38:50.659Z,15.57
2023-05-10T18:41:21.639Z,18.40
2023-05-10T18:43:52.609Z,18.00
2023-05-10T18:46:26.227Z,17.27
2023-05-10T18:48:57.432Z,17.63
2023-05-10T18:51:29.766Z,17.43
2023-05-10T18:54:04.326Z,18.90
2023-05-10T18:56:35.237Z,17.60
2023-05-10T18:59:07.529Z,18.67
2023-05-10T19:01:41.132Z,19.27
2023-05-10T19:04:12.474Z,19.00
2023-05-10T19:06:44.006Z,17.80
2023-05-10T19:09:15.058Z,17.20
2023-05-10T19:11:46.005Z,19.60
2023-05-10T19:14:16.969Z,17.93
2023-05-10T19:16:55.277Z,18.10
2023-05-10T19:19:26.284Z,19.00
2023-05-10T19:21:57.176Z,20.50
2023-05-10T19:24:28.217Z,20.93
2023-05-10T19:26:59.128Z,17.80
2023-05-10T19:29:30.244Z,16.83
2023-05-10T19:32:03.910Z,17.07
2023-05-10T19:34:35.152Z,15.50
2023-05-10T19:37:06.205Z,15.90
2023-05-10T19:39:37.337Z,13.80
2023-05-10T19:42:08.618Z,13.40
2023-05-10T19:44:39.559Z,13.57
2023-05-10T19:47:13.220Z,13.00
2023-05-10T19:49:44.231Z,13.00
2023-05-10T19:52:15.512Z,12.97
2023-05-10T19:54:48.089Z,12.70
2023-05-10T19:57:19.175Z,13.90
2023-05-10T19:59:50.131Z,12.80
2023-05-10T20:02:23.820Z,12.73
2023-05-10T20:04:54.737Z,12.10
2023-05-10T20:07:26.073Z,12.07
2023-05-10T20:09:57.001Z,11.53
2023-05-10T20:12:28.950Z,11.20
2023-05-10T20:15:00.041Z,11.00
2023-05-10T20:17:33.696Z,11.43
2023-05-10T20:20:05.282Z,11.20
2023-05-10T20:22:36.477Z,10.57
2023-05-10T20:25:11.395Z,11.30
2023-05-10T20:27:42.425Z,11.17
2023-05-10T20:30:18.082Z,10.90
2023-05-10T20:32:52.051Z,11.87
2023-05-10T20:35:23.079Z,11.80
2023-05-10T20:37:54.003Z,11.77
2023-05-10T20:40:25.140Z,12.23
2023-05-10T20:42:56.679Z,10.43
2023-05-10T20:45:27.680Z,11.23
2023-05-10T20:48:01.321Z,11.63
2023-05-10T20:50:32.351Z,12.20
2023-05-10T20:53:04.300Z,11.80
2023-05-10T20:55:35.253Z,12.30
2023-05-10T20:58:06.473Z,12.50
2023-05-10T21:00:37.440Z,14.13
2023-05-10T21:03:11.404Z,13.93
2023-05-10T21:05:42.481Z,13.77
2023-05-10T21:08:13.483Z,13.57
2023-05-10T21:10:44.532Z,14.50
2023-05-10T21:13:18.817Z,14.40
2023-05-10T21:15:50.148Z,15.07
2023-05-10T21:18:23.772Z,16.07
2023-05-10T21:20:54.761Z,15.63
2023-05-10T21:23:25.690Z,15.53
2023-05-10T21:25:56.580Z,14.73
2023-05-10T21:28:27.822Z,15.67
2023-05-10T21:30:58.792Z,17.70
2023-05-10T21:33:32.711Z,17.20
2023-05-10T21:36:03.641Z,17.73
2023-05-10T21:38:35.714Z,17.50
2023-05-10T21:41:09.797Z,18.03
2023-05-10T21:43:40.675Z,17.47
2023-05-10T21:46:13.378Z,18.77
2023-05-10T21:48:47.070Z,18.30
2023-05-10T21:51:18.088Z,19.17
2023-05-10T21:53:48.975Z,19.57
2023-05-10T21:56:19.920Z,18.70
2023-05-10T21:58:50.816Z,19.03
2023-05-10T22:01:21.822Z,19.93
2023-05-10T22:03:55.396Z,19.17
2023-05-10T22:06:26.210Z,18.20
2023-05-10T22:08:57.264Z,18.93
2023-05-10T22:11:28.400Z,19.67
2023-05-10T22:13:59.752Z,20.70
2023-05-10T22:16:33.931Z,21.20
2023-05-10T22:19:13.442Z,20.53
2023-05-10T22:21:50.493Z,21.13
2023-05-10T22:24:21.844Z,21.97
2023-05-10T22:26:57.069Z,19.50
2023-05-10T22:29:28.589Z,18.70
2023-05-10T22:31:59.782Z,17.90
2023-05-10T22:34:33.636Z,17.43
2023-05-10T22:37:05.520Z,18.60
2023-05-10T22:39:36.496Z,19.30
2023-05-10T22:42:08.200Z,18.30
2023-05-10T22:44:39.138Z,18.70
2023-05-10T22:47:13.134Z,17.93
2023-05-10T22:49:47.142Z,18.60
2023-05-10T22:52:19.211Z,19.33
2023-05-10T22:54:50.261Z,18.60
2023-05-10T22:57:21.183Z,19.23
2023-05-10T22:59:52.190Z,19.30
2023-05-10T23:02:23.242Z,19.43
2023-05-10T23:04:57.272Z,19.10
2023-05-10T23:07:28.237Z,20.00
2023-05-10T23:09:59.238Z,19.93
2023-05-10T23:12:31.432Z,20.73
2023-05-10T23:15:02.395Z,22.07
2023-05-10T23:17:33.293Z,20.27
2023-05-10T23:20:07.223Z,22.33
2023-05-10T23:22:38.072Z,20.50
2023-05-10T23:25:10.421Z,20.70
2023-05-10T23:27:41.416Z,20.60
2023-05-10T23:30:14.334Z,20.67
2023-05-10T23:32:45.578Z,19.50
2023-05-10T23:35:19.394Z,20.40
2023-05-10T23:37:50.293Z,22.53
2023-05-10T23:40:21.377Z,21.20
2023-05-10T23:42:54.708Z,20.80
2023-05-10T23:45:25.923Z,21.53
2023-05-10T23:47:57.081Z,20.80
2023-05-10T23:50:30.680Z,21.67
2023-05-10T23:53:02.118Z,20.27
2023-05-10T23:55:32.993Z,21.57
2023-05-10T23:58:03.888Z,21.73
